Time;durP1;ratioP1;P1;durP2;ratioP2;P2;SDS_P1;SDS_P2;PMS_P1;PMS_P2;Temp;Humidity;BMP_temperature;BMP_pressure;BME280_temperature;BME280_humidity;BME280_pressure;Samples;Min_cycle;Max_cycle;Signal;HPM_P1;HPM_P2
2023/08/31 00:00:43;;;;;;;2.78;1.70;;;;;;;16.62;74.00;99055.00;4997847;28;20200;-78
2023/08/31 00:03:09;;;;;;;2.05;1.63;;;;;;;16.60;74.31;99047.16;4997694;28;20249;-78
2023/08/31 00:05:40;;;;;;;5.05;2.10;;;;;;;16.64;74.44;99046.91;4997465;28;20439;-78
2023/08/31 00:08:06;;;;;;;3.20;1.53;;;;;;;16.67;74.50;99041.28;4997957;28;20203;-78
2023/08/31 00:10:32;;;;;;;2.93;2.30;;;;;;;16.68;74.44;99053.56;4997577;28;20467;-75
2023/08/31 00:12:58;;;;;;;3.80;2.20;;;;;;;16.67;74.33;99050.06;4995450;28;20489;-75
2023/08/31 00:15:23;;;;;;;1.90;1.57;;;;;;;16.64;74.34;99046.91;4996609;28;20451;-75
2023/08/31 00:17:50;;;;;;;3.40;1.80;;;;;;;16.54;74.39;99053.06;4964533;28;20701;-75
2023/08/31 00:20:15;;;;;;;4.30;2.13;;;;;;;16.45;74.68;99048.69;4957142;28;20218;-74
2023/08/31 00:22:41;;;;;;;2.30;2.10;;;;;;;16.44;74.79;99049.66;4956604;28;20211;-75
2023/08/31 00:25:08;;;;;;;4.60;1.90;;;;;;;16.48;74.77;99047.56;4955926;28;20199;-75
2023/08/31 00:27:34;;;;;;;3.42;2.40;;;;;;;16.54;74.86;99055.72;4956788;28;20223;-75
2023/08/31 00:29:59;;;;;;;3.20;1.70;;;;;;;16.61;74.77;99055.97;4953981;28;20467;-75
2023/08/31 00:32:25;;;;;;;4.23;1.80;;;;;;;16.67;74.66;99057.19;4956022;28;20537;-75
2023/08/31 00:34:50;;;;;;;6.20;1.97;;;;;;;16.70;74.61;99055.06;4954650;28;20219;-75
2023/08/31 00:37:16;;;;;;;4.40;2.90;;;;;;;16.74;75.14;99047.63;4953719;28;20446;-75
2023/08/31 00:39:44;;;;;;;3.00;2.17;;;;;;;16.72;75.19;99047.81;4958107;28;20203;-75
2023/08/31 00:42:10;;;;;;;1.97;1.60;;;;;;;16.68;75.35;99048.25;4953681;28;20216;-75
2023/08/31 00:44:35;;;;;;;5.33;2.50;;;;;;;16.67;75.27;99057.19;4955809;28;20470;-75
2023/08/31 00:47:02;;;;;;;2.40;1.57;;;;;;;16.61;75.16;99055.97;4953313;28;20432;-75
2023/08/31 00:49:28;;;;;;;2.57;1.63;;;;;;;16.54;75.40;99053.06;4956991;28;20203;-75
2023/08/31 00:51:54;;;;;;;3.10;2.00;;;;;;;16.43;75.37;99057.75;4955594;28;20462;-75
2023/08/31 00:54:23;;;;;;;2.43;1.70;;;;;;;16.34;75.53;99049.72;4957524;28;21062;-75
2023/08/31 00:56:54;;;;;;;2.70;2.17;;;;;;;16.31;75.66;99046.50;4959245;28;20482;-74
2023/08/31 00:59:20;;;;;;;1.65;1.40;;;;;;;16.27;75.55;99051.28;4957167;28;20543;-75
2023/08/31 01:01:57;;;;;;;2.13;1.87;;;;;;;16.26;75.71;99043.50;4954760;28;20809;-75
2023/08/31 01:04:38;;;;;;;3.03;1.90;;;;;;;16.29;75.54;99043.19;4955584;28;20386;-75
2023/08/31 01:07:39;;;;;;;4.18;2.40;;;;;;;16.34;76.07;99041.78;4956971;28;20512;-76
2023/08/31 01:10:20;;;;;;;4.20;2.10;;;;;;;16.31;75.94;99054.47;4958886;28;20210;-75
2023/08/31 01:12:53;;;;;;;2.33;1.83;;;;;;;16.25;76.00;99053.25;4953044;28;21299;-75
2023/08/31 01:15:19;;;;;;;3.23;2.40;;;;;;;16.20;75.97;99052.84;4955495;28;20209;-75
2023/08/31 01:17:52;;;;;;;2.47;2.17;;;;;;;16.15;75.99;99055.97;4962108;28;21045;-74
2023/08/31 01:20:28;;;;;;;3.28;2.00;;;;;;;16.12;76.12;99053.59;4974873;28;20473;-75
2023/08/31 01:23:05;;;;;;;2.55;1.70;;;;;;;16.09;76.09;99059.19;4973461;28;20209;-75
2023/08/31 01:25:32;;;;;;;1.95;1.55;;;;;;;16.08;76.20;99051.38;4973088;28;20678;-75
2023/08/31 01:27:59;;;;;;;3.10;2.30;;;;;;;16.08;76.02;99057.50;4972544;28;20223;-75
2023/08/31 01:30:25;;;;;;;2.20;1.73;;;;;;;16.12;76.04;99058.03;4972332;28;20566;-75
2023/08/31 01:32:50;;;;;;;2.27;2.07;;;;;;;16.18;76.07;99067.25;4973956;28;20774;-75
2023/08/31 01:35:17;;;;;;;3.20;2.20;;;;;;;16.24;75.81;99072.78;4972216;28;20199;-75
2023/08/31 01:37:54;;;;;;;2.83;2.20;;;;;;;16.31;75.70;99067.72;4972220;28;20618;-75
2023/08/31 01:40:28;;;;;;;1.77;1.50;;;;;;;16.35;75.50;99071.75;4974943;28;20842;-74
2023/08/31 01:42:55;;;;;;;2.05;1.80;;;;;;;16.36;75.44;99063.66;4973501;28;20256;-75
2023/08/31 01:45:22;;;;;;;2.20;2.00;;;;;;;16.38;75.53;99068.81;4973650;28;20333;-75
2023/08/31 01:47:48;;;;;;;3.25;2.38;;;;;;;16.40;75.45;99066.03;4973533;28;20371;-75
2023/08/31 01:50:13;;;;;;;9.20;2.50;;;;;;;16.40;75.55;99063.38;4972574;28;20226;-75
2023/08/31 01:52:39;;;;;;;3.83;2.57;;;;;;;16.44;75.60;99072.69;4973787;28;20960;-75
2023/08/31 01:55:05;;;;;;;3.10;2.00;;;;;;;16.46;75.60;99066.25;4969917;28;20829;-75
2023/08/31 01:57:32;;;;;;;2.40;2.20;;;;;;;16.50;75.68;99072.06;4974004;28;20299;-75
2023/08/31 02:00:11;;;;;;;3.45;2.33;;;;;;;16.54;75.64;99074.28;4972714;28;20198;-75
2023/08/31 02:02:49;;;;;;;2.10;1.70;;;;;;;16.56;75.45;99068.84;4970745;28;20637;-75
2023/08/31 02:05:30;;;;;;;2.70;1.90;;;;;;;16.49;75.40;99070.41;4970268;28;20440;-75
2023/08/31 02:08:07;;;;;;;3.15;2.65;;;;;;;16.41;75.92;99063.19;4965710;28;20421;-74
2023/08/31 02:10:38;;;;;;;4.18;1.90;;;;;;;16.36;76.10;99068.09;4971352;28;20856;-75
2023/08/31 02:13:15;;;;;;;4.18;2.25;;;;;;;16.32;76.32;99070.22;4969419;28;20380;-75
2023/08/31 02:15:44;;;;;;;2.50;1.93;;;;;;;16.31;76.44;99079.16;4964016;28;20200;-75
2023/08/31 02:18:13;;;;;;;2.80;2.33;;;;;;;16.33;76.37;99077.19;4952331;28;20479;-75
2023/08/31 02:21:08;;;;;;;2.45;2.25;;;;;;;16.35;76.29;99072.59;4945263;28;21223;-75
2023/08/31 02:23:50;;;;;;;4.13;2.20;;;;;;;16.36;76.33;99065.47;4957257;28;20210;-75
2023/08/31 02:26:26;;;;;;;2.60;2.20;;;;;;;16.42;76.45;99071.97;4936474;28;20459;-75
2023/08/31 02:29:06;;;;;;;3.30;2.05;;;;;;;16.45;76.31;99069.88;4942402;28;20230;-75
2023/08/31 02:31:37;;;;;;;3.43;2.17;;;;;;;16.46;76.23;99073.38;4941181;28;20214;-75
2023/08/31 02:34:38;;;;;;;4.28;2.60;;;;;;;16.48;76.12;99080.19;4942586;28;20458;-75
2023/08/31 02:37:08;;;;;;;4.40;1.63;;;;;;;16.49;75.88;99081.84;4944837;28;20719;-74
2023/08/31 02:39:50;;;;;;;3.50;2.17;;;;;;;16.51;75.91;99087.00;4943530;28;20454;-74
2023/08/31 02:42:19;;;;;;;2.40;2.00;;;;;;;16.54;75.68;99089.38;4947091;28;20279;-75
2023/08/31 02:44:56;;;;;;;3.60;2.10;;;;;;;16.53;75.68;99083.25;4945619;28;20471;-75
2023/08/31 02:47:30;;;;;;;3.45;1.75;;;;;;;16.54;75.50;99079.59;4945077;28;20557;-75
2023/08/31 02:50:06;;;;;;;3.15;2.10;;;;;;;16.56;75.39;99082.09;4941782;28;20202;-75
2023/08/31 02:52:37;;;;;;;2.78;1.85;;;;;;;16.54;75.36;99084.91;4946313;28;20195;-74
2023/08/31 02:55:15;;;;;;;2.50;1.80;;;;;;;16.52;75.38;99086.84;4940393;28;20236;-75
2023/08/31 02:58:01;;;;;;;1.42;1.33;;;;;;;16.51;75.40;99084.38;4947041;28;20452;-75
2023/08/31 03:00:42;;;;;;;4.72;1.70;;;;;;;16.50;75.29;99090.63;4949520;28;20207;-75
2023/08/31 03:03:18;;;;;;;2.92;1.90;;;;;;;16.46;75.54;99091.94;4961601;28;20217;-75
2023/08/31 03:05:53;;;;;;;3.35;1.90;;;;;;;16.42;75.57;99095.84;4950573;28;20272;-75
2023/08/31 03:08:21;;;;;;;3.15;2.00;;;;;;;16.38;75.80;99111.22;4951618;28;20199;-75
2023/08/31 03:11:08;;;;;;;2.47;2.27;;;;;;;16.35;75.86;99109.69;4954370;28;20210;-76
2023/08/31 03:13:38;;;;;;;3.80;2.25;;;;;;;16.32;76.00;99114.47;4952113;28;20207;-75
2023/08/31 03:16:09;;;;;;;1.67;1.37;;;;;;;16.29;75.97;99106.81;4954673;28;20302;-75
2023/08/31 03:19:14;;;;;;;1.73;1.63;;;;;;;16.31;75.94;99108.31;4989769;28;20824;-75
2023/08/31 03:21:49;;;;;;;5.22;2.65;;;;;;;16.34;75.83;99115.16;4977144;28;20200;-75
2023/08/31 03:24:23;;;;;;;7.00;2.70;;;;;;;16.34;75.90;99110.69;4994980;28;20227;-75
2023/08/31 03:26:51;;;;;;;2.65;2.00;;;;;;;16.32;75.74;99102.03;4991576;28;20569;-75
2023/08/31 03:29:22;;;;;;;2.22;2.00;;;;;;;16.32;75.86;99111.81;4992453;28;20209;-74
2023/08/31 03:31:56;;;;;;;2.75;1.90;;;;;;;16.33;75.84;99108.16;4977413;28;20220;-74
2023/08/31 03:34:31;;;;;;;3.70;2.10;;;;;;;16.34;75.80;99117.81;4979056;28;20260;-75
2023/08/31 03:36:58;;;;;;;3.78;2.40;;;;;;;16.38;76.16;99109.38;4992472;28;20442;-77
2023/08/31 03:39:24;;;;;;;2.10;1.83;;;;;;;16.41;76.32;99105.63;4970257;28;20197;-75
2023/08/31 03:41:50;;;;;;;3.35;2.08;;;;;;;16.42;76.18;99109.94;4969509;28;20264;-77
2023/08/31 03:44:16;;;;;;;3.40;3.10;;;;;;;16.45;76.07;99112.31;4973122;28;20234;-75
2023/08/31 03:46:42;;;;;;;2.60;2.30;;;;;;;16.45;75.84;99117.59;4975982;28;20263;-75
2023/08/31 03:49:07;;;;;;;4.65;2.03;;;;;;;16.46;76.04;99119.25;4979677;28;20212;-75
2023/08/31 03:51:33;;;;;;;4.00;2.50;;;;;;;16.48;75.85;99114.66;4996912;28;20213;-76
2023/08/31 03:53:58;;;;;;;2.40;2.10;;;;;;;16.48;75.78;99122.59;4980489;28;20588;-75
2023/08/31 03:56:26;;;;;;;3.22;1.63;;;;;;;16.46;75.85;99132.53;4981800;28;20304;-75
2023/08/31 03:58:52;;;;;;;3.20;2.58;;;;;;;16.46;75.75;99134.34;4976673;28;20197;-75
2023/08/31 04:01:17;;;;;;;3.23;2.10;;;;;;;16.44;75.76;99134.47;4976755;28;20214;-76
2023/08/31 04:03:43;;;;;;;4.93;2.10;;;;;;;16.45;75.68;99133.50;4982484;28;20435;-76
2023/08/31 04:06:08;;;;;;;2.42;2.13;;;;;;;16.47;75.69;99131.56;4981602;28;20441;-76
2023/08/31 04:08:34;;;;;;;3.93;3.23;;;;;;;16.48;75.75;99145.63;4981359;28;20197;-76
2023/08/31 04:11:03;;;;;;;3.15;2.50;;;;;;;16.51;75.67;99132.09;4981798;28;20216;-76
2023/08/31 04:13:28;;;;;;;2.57;2.10;;;;;;;16.52;75.64;99134.56;4977516;28;20631;-76
2023/08/31 04:15:54;;;;;;;3.23;1.87;;;;;;;16.55;75.46;99144.91;4996830;28;20201;-75
2023/08/31 04:18:20;;;;;;;3.00;2.30;;;;;;;16.57;75.21;99142.09;4996919;28;20244;-76
2023/08/31 04:20:54;;;;;;;3.43;1.93;;;;;;;16.58;75.10;99152.56;4996797;28;20249;-75
2023/08/31 04:23:20;;;;;;;4.72;2.20;;;;;;;16.59;75.12;99156.03;4995015;28;20212;-76
2023/08/31 04:28:36;;;;;;;4.15;2.05;;;;;;;16.57;75.16;99158.84;4944052;28;20555;-79
2023/08/31 04:31:04;;;;;;;2.38;1.95;;;;;;;16.56;75.09;99157.16;4949990;28;20553;-78
2023/08/31 04:33:30;;;;;;;5.72;2.22;;;;;;;16.56;74.94;99162.47;4956045;28;20186;-78
2023/08/31 04:35:55;;;;;;;3.07;1.97;;;;;;;16.56;74.93;99159.81;4954700;28;20223;-78
2023/08/31 04:38:20;;;;;;;2.97;1.93;;;;;;;16.54;74.91;99161.78;4931428;29;20655;-79
2023/08/31 04:40:46;;;;;;;2.60;2.40;;;;;;;16.55;74.77;99171.44;4932811;29;20343;-78
2023/08/31 04:43:11;;;;;;;2.67;1.90;;;;;;;16.55;74.69;99163.47;4934346;29;20275;-78
2023/08/31 04:45:37;;;;;;;3.97;1.87;;;;;;;16.55;74.72;99155.50;4935860;28;20207;-79
2023/08/31 04:48:03;;;;;;;5.33;1.83;;;;;;;16.57;74.56;99163.31;4939203;29;20309;-79
2023/08/31 04:50:28;;;;;;;4.25;1.77;;;;;;;16.57;74.60;99164.13;4938396;29;20207;-79
2023/08/31 04:52:54;;;;;;;3.43;1.83;;;;;;;16.58;74.67;99165.81;4937251;29;20207;-79
2023/08/31 04:55:21;;;;;;;2.90;2.53;;;;;;;16.59;74.39;99166.66;4932800;29;20223;-78
2023/08/31 04:57:47;;;;;;;2.00;1.80;;;;;;;16.60;74.48;99163.00;4933026;28;20263;-78
2023/08/31 05:00:12;;;;;;;5.57;2.50;;;;;;;16.60;74.22;99179.75;4919078;29;20614;-78
2023/08/31 05:02:38;;;;;;;3.87;2.33;;;;;;;16.58;74.31;99179.09;4933658;29;20589;-79
2023/08/31 05:05:05;;;;;;;3.00;2.17;;;;;;;16.55;74.28;99176.72;4932956;29;20458;-79
2023/08/31 05:07:30;;;;;;;3.70;2.67;;;;;;;16.53;74.36;99183.97;4932770;28;20219;-79
2023/08/31 05:09:55;;;;;;;2.80;2.10;;;;;;;16.51;74.34;99193.06;4932252;29;20478;-80
2023/08/31 05:12:21;;;;;;;3.23;1.77;;;;;;;16.49;74.42;99193.19;4932911;29;20204;-80
2023/08/31 05:14:46;;;;;;;4.47;2.10;;;;;;;16.47;74.32;99196.97;4932536;29;20239;-79
2023/08/31 05:17:12;;;;;;;3.77;1.80;;;;;;;16.48;74.19;99203.97;4936269;28;20315;-79
2023/08/31 05:19:37;;;;;;;4.20;2.43;;;;;;;16.47;73.99;99199.63;4931659;29;20238;-80
2023/08/31 05:22:02;;;;;;;2.87;2.10;;;;;;;16.45;74.17;99205.09;4932102;29;20311;-79
2023/08/31 05:24:28;;;;;;;2.03;1.80;;;;;;;16.43;74.27;99203.56;4922180;29;20266;-78
2023/08/31 05:26:53;;;;;;;3.00;1.90;;;;;;;16.44;74.16;99215.81;4929766;28;20235;-79
2023/08/31 05:29:19;;;;;;;2.30;2.10;;;;;;;16.43;74.17;99215.00;4932666;29;20216;-79
2023/08/31 05:31:44;;;;;;;5.10;2.23;;;;;;;16.47;74.37;99218.19;4930802;29;20235;-80
2023/08/31 05:34:10;;;;;;;6.60;2.60;;;;;;;16.49;73.92;99227.66;4935185;29;20232;-79
2023/08/31 05:36:36;;;;;;;4.27;2.60;;;;;;;16.53;74.00;99226.41;4939287;29;20231;-80
2023/08/31 05:39:01;;;;;;;2.07;1.90;;;;;;;16.57;73.76;99226.94;4936124;29;20474;-78
2023/08/31 05:41:27;;;;;;;2.70;2.43;;;;;;;16.62;73.51;99234.47;4931790;29;20278;-78
2023/08/31 05:43:52;;;;;;;3.20;2.10;;;;;;;16.65;73.40;99237.66;4935176;29;20692;-78
2023/08/31 05:46:18;;;;;;;4.57;3.13;;;;;;;16.71;73.49;99236.22;4933028;28;20216;-79
2023/08/31 05:48:43;;;;;;;5.47;2.87;;;;;;;16.77;73.05;99225.09;4935351;29;20702;-79
2023/08/31 05:51:09;;;;;;;5.17;2.13;;;;;;;16.82;73.19;99233.41;4937929;29;20430;-80
2023/08/31 05:53:34;;;;;;;4.80;2.97;;;;;;;16.87;72.85;99235.66;4936060;28;20209;-80
2023/08/31 05:56:03;;;;;;;2.43;2.10;;;;;;;16.92;72.78;99236.03;4930906;28;20219;-80
2023/08/31 05:58:36;;;;;;;2.00;1.80;;;;;;;17.02;72.48;99239.47;4933974;29;20228;-80
2023/08/31 06:01:03;;;;;;;3.00;2.23;;;;;;;17.09;72.00;99245.03;4930719;29;20459;-80
2023/08/31 06:03:29;;;;;;;2.42;2.05;;;;;;;17.15;71.75;99241.81;4929586;29;20520;-80
2023/08/31 06:05:56;;;;;;;3.70;2.67;;;;;;;17.31;71.32;99241.97;4931304;29;20215;-80
2023/08/31 06:08:22;;;;;;;3.87;1.90;;;;;;;17.47;70.82;99251.91;4930577;29;20194;-78
2023/08/31 06:10:47;;;;;;;2.57;1.57;;;;;;;17.57;70.48;99242.06;4930934;29;20549;-79
2023/08/31 06:13:12;;;;;;;3.77;1.77;;;;;;;17.75;69.94;99230.59;4936198;29;21096;-80
2023/08/31 06:15:38;;;;;;;4.40;2.40;;;;;;;18.28;69.03;99237.66;4932628;29;20526;-79
2023/08/31 06:18:04;;;;;;;3.67;2.10;;;;;;;19.00;66.89;99235.59;4934305;29;20201;-80
2023/08/31 06:20:30;;;;;;;3.47;1.80;;;;;;;19.53;65.15;99246.91;4932208;29;20468;-79
2023/08/31 06:22:57;;;;;;;4.90;2.07;;;;;;;20.07;63.71;99250.78;4931540;29;20515;-80
2023/08/31 06:25:23;;;;;;;3.37;1.93;;;;;;;20.76;62.17;99234.34;4931835;29;20507;-79
2023/08/31 06:27:48;;;;;;;4.23;2.50;;;;;;;21.27;60.52;99221.41;4934427;29;20601;-80
2023/08/31 06:30:17;;;;;;;1.60;1.40;;;;;;;21.27;59.82;99221.41;4930769;29;20205;-79
2023/08/31 06:32:47;;;;;;;2.77;1.70;;;;;;;21.04;60.29;99226.72;4932651;29;20210;-80
2023/08/31 06:35:13;;;;;;;2.87;1.90;;;;;;;21.12;60.19;99229.38;4932012;29;20465;-81
2023/08/31 06:37:39;;;;;;;3.93;2.13;;;;;;;21.24;59.40;99237.81;4931439;29;20475;-79
2023/08/31 06:40:08;;;;;;;2.23;2.03;;;;;;;21.08;59.16;99237.88;4932555;29;20457;-80
2023/08/31 06:42:34;;;;;;;3.10;2.30;;;;;;;20.72;59.75;99249.88;4928728;29;20448;-80
2023/08/31 06:44:59;;;;;;;5.70;1.97;;;;;;;20.38;60.42;99250.06;4932771;29;20469;-80
2023/08/31 06:47:24;;;;;;;2.03;1.60;;;;;;;20.12;60.85;99263.63;4932335;29;20496;-80
2023/08/31 06:49:50;;;;;;;5.20;2.70;;;;;;;19.84;61.63;99257.78;4933191;29;20607;-79
2023/08/31 06:52:16;;;;;;;2.53;1.63;;;;;;;19.68;61.90;99255.94;4930163;29;20773;-80
2023/08/31 06:54:41;;;;;;;2.97;2.13;;;;;;;19.53;62.33;99262.88;4925708;29;20573;-80
2023/08/31 06:57:07;;;;;;;1.80;1.70;;;;;;;19.43;62.58;99257.69;4931859;28;20276;-79
2023/08/31 06:59:32;;;;;;;2.80;1.60;;;;;;;19.37;62.87;99264.50;4932125;29;20216;-79
2023/08/31 07:01:58;;;;;;;4.00;2.00;;;;;;;19.33;63.04;99271.13;4930505;29;20293;-80
2023/08/31 07:04:23;;;;;;;4.17;1.83;;;;;;;19.31;63.11;99281.13;4928810;29;20228;-79
2023/08/31 07:06:49;;;;;;;3.93;2.30;;;;;;;19.32;62.93;99279.31;4936202;28;20733;-79
2023/08/31 07:09:14;;;;;;;2.20;1.80;;;;;;;19.22;63.35;99285.59;4937245;29;20208;-79
2023/08/31 07:11:39;;;;;;;5.23;1.80;;;;;;;19.17;63.41;99285.25;4935831;28;20265;-80
2023/08/31 07:14:05;;;;;;;4.83;2.53;;;;;;;19.14;63.26;99280.22;4930828;29;20209;-80
2023/08/31 07:16:30;;;;;;;2.40;1.93;;;;;;;19.12;63.46;99276.91;4925752;29;20246;-79
2023/08/31 07:18:56;;;;;;;2.33;1.77;;;;;;;19.12;63.39;99268.94;4924917;29;20205;-80
2023/08/31 07:21:22;;;;;;;1.90;1.80;;;;;;;19.13;63.64;99262.59;4921890;29;20364;-80
2023/08/31 07:23:48;;;;;;;3.40;2.10;;;;;;;19.23;63.31;99267.81;4924409;29;20295;-78
2023/08/31 07:26:15;;;;;;;3.80;2.20;;;;;;;19.66;62.24;99272.09;4926333;29;20481;-79
2023/08/31 07:28:41;;;;;;;3.30;2.10;;;;;;;20.37;60.23;99272.44;4918091;29;20197;-80
2023/08/31 07:31:07;;;;;;;2.20;1.70;;;;;;;21.04;58.27;99285.47;4926177;29;20988;-78
2023/08/31 07:33:34;;;;;;;2.43;2.23;;;;;;;21.70;56.60;99286.00;4921700;29;20201;-81
2023/08/31 07:36:00;;;;;;;3.13;2.30;;;;;;;22.40;54.35;99286.81;4924844;28;20432;-80
2023/08/31 07:38:27;;;;;;;3.27;1.87;;;;;;;22.91;52.55;99286.94;4920585;29;20243;-79
2023/08/31 07:40:52;;;;;;;3.47;2.43;;;;;;;23.33;51.44;99278.25;4924797;29;20791;-80
2023/08/31 07:43:18;;;;;;;3.60;2.93;;;;;;;23.76;50.28;99277.50;4923057;29;20934;-81
2023/08/31 07:45:44;;;;;;;4.67;2.67;;;;;;;24.13;49.18;99279.09;4918549;28;20604;-80
2023/08/31 07:48:09;;;;;;;4.43;3.37;;;;;;;24.42;48.43;99279.94;4922188;29;20477;-81
2023/08/31 07:50:34;;;;;;;4.17;3.30;;;;;;;24.53;47.69;99289.34;4921756;29;20204;-80
2023/08/31 07:53:00;;;;;;;3.73;1.70;;;;;;;24.50;47.63;99290.56;4917638;29;20223;-80
2023/08/31 07:55:25;;;;;;;3.20;2.40;;;;;;;24.39;46.87;99283.03;4920222;29;21432;-81
2023/08/31 07:57:51;;;;;;;2.70;1.90;;;;;;;24.29;47.40;99292.22;4917486;29;20216;-81
2023/08/31 08:00:16;;;;;;;2.77;1.87;;;;;;;24.49;47.08;99289.75;4914453;29;20234;-79
2023/08/31 08:02:42;;;;;;;2.80;2.10;;;;;;;24.65;46.64;99280.53;4918494;29;20221;-81
2023/08/31 08:05:07;;;;;;;3.07;1.97;;;;;;;24.88;45.71;99288.34;4923652;29;20238;-80
2023/08/31 08:07:33;;;;;;;1.70;1.60;;;;;;;25.14;45.10;99286.81;4932343;29;20424;-80
2023/08/31 08:09:59;;;;;;;4.00;2.60;;;;;;;25.47;43.94;99292.38;4925566;29;20209;-81
2023/08/31 08:12:25;;;;;;;4.60;2.23;;;;;;;25.83;43.50;99294.75;4923387;29;20201;-80
2023/08/31 08:14:50;;;;;;;5.20;3.40;;;;;;;26.19;42.17;99298.94;4918123;29;20476;-80
2023/08/31 08:17:16;;;;;;;2.70;2.30;;;;;;;26.24;41.97;99296.44;4918561;29;20855;-80
2023/08/31 08:19:41;;;;;;;2.10;1.60;;;;;;;26.27;41.14;99292.50;4915301;29;20233;-81
2023/08/31 08:22:07;;;;;;;3.10;2.27;;;;;;;26.35;41.18;99291.47;4924278;29;20210;-80
2023/08/31 08:24:32;;;;;;;2.80;1.57;;;;;;;26.42;40.48;99295.00;4920130;29;20228;-80
2023/08/31 08:26:58;;;;;;;1.70;1.33;;;;;;;26.52;39.54;99300.00;4920347;29;21265;-81
2023/08/31 08:29:24;;;;;;;2.40;1.50;;;;;;;26.57;38.86;99303.75;4918084;29;20204;-80
2023/08/31 08:31:50;;;;;;;2.17;1.93;;;;;;;26.46;39.03;99304.31;4917243;29;20432;-81
2023/08/31 08:34:15;;;;;;;1.60;1.40;;;;;;;26.38;38.73;99293.75;4921991;29;20264;-81
2023/08/31 08:36:41;;;;;;;3.00;1.50;;;;;;;26.33;37.11;99296.22;4918769;29;20468;-80
2023/08/31 08:39:06;;;;;;;2.47;1.47;;;;;;;26.28;37.26;99296.88;4916218;29;20292;-81
2023/08/31 08:41:32;;;;;;;2.80;1.70;;;;;;;26.27;37.40;99306.81;4918446;29;20771;-80
2023/08/31 08:44:03;;;;;;;3.93;3.30;;;;;;;26.17;37.60;99313.66;4919669;29;20270;-81
2023/08/31 08:46:31;;;;;;;4.30;2.67;;;;;;;25.82;37.67;99319.16;4922785;28;20540;-81
2023/08/31 08:48:58;;;;;;;5.70;2.90;;;;;;;25.38;38.42;99309.69;4917736;29;20729;-81
2023/08/31 08:51:24;;;;;;;3.13;1.80;;;;;;;25.11;38.79;99314.09;4927596;29;20547;-81
2023/08/31 08:53:50;;;;;;;3.83;2.23;;;;;;;25.01;39.22;99305.56;4920896;29;21019;-80
2023/08/31 08:56:16;;;;;;;5.07;2.77;;;;;;;24.81;39.91;99313.50;4925054;29;20213;-81
2023/08/31 08:58:42;;;;;;;6.20;2.50;;;;;;;24.64;39.73;99321.03;4924809;29;20548;-80
2023/08/31 09:01:08;;;;;;;2.60;1.90;;;;;;;24.51;39.00;99319.91;4927121;29;20875;-80
2023/08/31 09:03:35;;;;;;;5.07;2.30;;;;;;;24.43;38.95;99316.50;4926155;29;20858;-81
2023/08/31 09:06:07;;;;;;;3.00;1.73;;;;;;;24.37;39.18;99307.38;4927544;29;20457;-81
2023/08/31 09:08:33;;;;;;;6.47;3.27;;;;;;;24.36;39.74;99316.47;4927235;29;20431;-81
2023/08/31 09:10:59;;;;;;;2.17;1.77;;;;;;;24.38;39.42;99324.31;4926062;29;21002;-80
2023/08/31 09:13:29;;;;;;;5.47;2.03;;;;;;;24.30;38.95;99309.16;4923484;29;20588;-80
2023/08/31 09:15:57;;;;;;;3.63;1.50;;;;;;;24.16;38.58;99315.44;4926551;29;20583;-80
2023/08/31 09:18:27;;;;;;;2.43;1.70;;;;;;;23.95;38.37;99313.59;4923687;29;20468;-80
2023/08/31 09:20:54;;;;;;;3.13;2.47;;;;;;;23.78;39.62;99318.38;4928095;29;20221;-79
2023/08/31 09:23:20;;;;;;;9.20;4.57;;;;;;;23.72;40.50;99324.50;4925042;29;20443;-80
2023/08/31 09:25:50;;;;;;;5.07;3.20;;;;;;;23.61;41.43;99326.63;4923077;28;20551;-80
2023/08/31 09:28:18;;;;;;;4.87;1.60;;;;;;;23.56;42.33;99326.34;4923107;29;20571;-79
2023/08/31 09:30:46;;;;;;;2.57;2.03;;;;;;;23.39;42.80;99327.59;4925162;29;21010;-79
2023/08/31 09:33:17;;;;;;;2.90;1.60;;;;;;;23.24;43.24;99332.97;4922849;29;20459;-79
2023/08/31 09:35:57;;;;;;;4.70;2.25;;;;;;;23.12;43.51;99326.44;4925144;29;20829;-80
2023/08/31 09:38:22;;;;;;;1.87;1.67;;;;;;;23.05;43.76;99337.03;4923463;29;20343;-79
2023/08/31 09:40:48;;;;;;;4.43;1.80;;;;;;;22.95;44.14;99333.75;4922779;29;20889;-79
2023/08/31 09:43:23;;;;;;;4.33;1.80;;;;;;;22.88;44.69;99338.22;4921669;29;20225;-80
2023/08/31 09:45:50;;;;;;;2.60;2.00;;;;;;;22.83;45.02;99333.41;4924264;28;20595;-80
2023/08/31 09:48:16;;;;;;;6.50;2.23;;;;;;;22.78;45.47;99337.63;4922718;29;20465;-79
2023/08/31 09:50:45;;;;;;;3.50;1.70;;;;;;;22.65;45.76;99328.38;4926141;29;21034;-80
2023/08/31 09:53:11;;;;;;;6.27;2.30;;;;;;;22.58;46.23;99346.19;4923154;29;20675;-80
2023/08/31 09:55:40;;;;;;;2.33;2.07;;;;;;;22.61;46.86;99351.19;4927026;28;20465;-80
2023/08/31 09:58:08;;;;;;;3.93;2.27;;;;;;;22.60;46.88;99348.69;4924350;29;21006;-80
2023/08/31 10:00:36;;;;;;;3.50;2.07;;;;;;;22.58;46.98;99351.56;4918721;29;20499;-80
2023/08/31 10:03:04;;;;;;;4.87;2.30;;;;;;;22.60;46.89;99346.88;4920841;29;21296;-81
2023/08/31 10:05:31;;;;;;;3.28;1.70;;;;;;;22.67;46.63;99344.28;4920291;29;20463;-80
2023/08/31 10:07:58;;;;;;;3.90;1.60;;;;;;;22.81;46.45;99339.94;4922788;28;20210;-80
2023/08/31 10:10:23;;;;;;;2.80;2.10;;;;;;;22.90;45.77;99338.84;4919482;29;20524;-79
2023/08/31 10:12:49;;;;;;;2.10;1.80;;;;;;;22.91;45.92;99340.53;4922466;29;20450;-80
2023/08/31 10:15:18;;;;;;;2.10;1.90;;;;;;;22.94;45.76;99334.78;4922378;29;20229;-81
2023/08/31 10:17:45;;;;;;;2.10;1.80;;;;;;;23.02;44.80;99333.91;4922835;29;20220;-82
2023/08/31 10:20:16;;;;;;;4.03;1.70;;;;;;;23.11;42.80;99343.50;4919809;29;21514;-81
2023/08/31 10:22:42;;;;;;;6.80;2.67;;;;;;;23.18;42.50;99329.19;4921228;29;20513;-79
2023/08/31 10:25:09;;;;;;;3.13;2.10;;;;;;;23.25;41.58;99328.44;4921928;29;20497;-81
2023/08/31 10:27:47;;;;;;;3.30;2.07;;;;;;;23.26;41.25;99327.44;4961873;23;20235;-79
2023/08/31 10:30:13;;;;;;;2.00;1.50;;;;;;;23.32;41.14;99316.78;4967761;28;20571;-78
2023/08/31 10:32:38;;;;;;;3.10;1.87;;;;;;;23.41;41.20;99323.72;4986287;28;20462;-78
2023/08/31 10:35:05;;;;;;;1.50;1.40;;;;;;;23.57;41.50;99330.72;4990389;28;20823;-77
2023/08/31 10:37:31;;;;;;;3.43;1.70;;;;;;;23.74;41.29;99325.16;4992081;28;20233;-78
2023/08/31 10:40:11;;;;;;;2.60;1.70;;;;;;;23.92;40.33;99314.81;4987156;28;20428;-77
2023/08/31 10:42:47;;;;;;;2.70;1.60;;;;;;;23.88;40.22;99310.84;4973258;28;20211;-76
2023/08/31 10:45:13;;;;;;;3.10;1.53;;;;;;;23.80;39.79;99311.81;4989890;28;20488;-77
2023/08/31 10:47:42;;;;;;;1.63;1.40;;;;;;;23.66;39.58;99322.56;4990870;28;20465;-78
2023/08/31 10:50:20;;;;;;;4.00;1.90;;;;;;;23.59;39.71;99320.59;4991205;28;20555;-78
2023/08/31 10:52:46;;;;;;;3.30;2.07;;;;;;;23.60;39.79;99318.75;4991403;28;20459;-77
2023/08/31 10:55:11;;;;;;;2.60;1.50;;;;;;;23.58;39.81;99316.28;4988053;28;20436;-78
2023/08/31 10:57:37;;;;;;;4.23;2.00;;;;;;;23.54;40.07;99314.16;4989099;28;20273;-78
2023/08/31 11:00:03;;;;;;;2.57;1.83;;;;;;;23.56;40.17;99326.34;4987083;28;20705;-77
2023/08/31 11:02:36;;;;;;;2.60;1.53;;;;;;;23.64;39.95;99320.88;4988108;28;20440;-78
2023/08/31 11:05:04;;;;;;;2.93;1.47;;;;;;;23.71;39.98;99328.16;4988792;28;20545;-77
2023/08/31 11:07:30;;;;;;;4.03;1.53;;;;;;;23.70;39.94;99313.94;4984661;28;20576;-77
2023/08/31 11:10:08;;;;;;;4.60;2.03;;;;;;;23.72;40.02;99311.94;4989742;28;20444;-78
2023/08/31 11:12:33;;;;;;;1.80;1.70;;;;;;;23.69;40.59;99322.19;4991861;28;20230;-78
2023/08/31 11:14:58;;;;;;;4.50;2.90;;;;;;;23.70;40.89;99313.09;4989865;28;20510;-79
2023/08/31 11:17:24;;;;;;;3.67;1.80;;;;;;;23.67;40.85;99318.84;4985903;28;20929;-78
2023/08/31 11:19:50;;;;;;;3.57;1.90;;;;;;;23.56;40.91;99321.00;4988556;28;20219;-78
2023/08/31 11:22:15;;;;;;;3.10;1.93;;;;;;;23.46;40.94;99315.09;4987574;28;20394;-77
2023/08/31 11:24:41;;;;;;;2.97;1.73;;;;;;;23.36;41.14;99309.22;4989069;28;20298;-77
2023/08/31 11:27:13;;;;;;;2.90;1.90;;;;;;;23.36;41.23;99306.53;4987303;28;20636;-77
2023/08/31 11:29:48;;;;;;;2.93;1.40;;;;;;;23.44;41.37;99310.94;4986731;28;20225;-77
2023/08/31 11:32:13;;;;;;;2.80;1.93;;;;;;;23.52;40.75;99313.50;4990386;28;20465;-77
2023/08/31 11:34:44;;;;;;;3.10;1.70;;;;;;;23.62;39.90;99308.69;4987405;28;20448;-77
2023/08/31 11:37:17;;;;;;;2.40;1.60;;;;;;;23.67;40.08;99308.94;4969535;28;20703;-77
2023/08/31 11:39:53;;;;;;;2.47;2.00;;;;;;;23.63;39.87;99303.13;4985955;28;20428;-78
2023/08/31 11:42:20;;;;;;;2.17;1.20;;;;;;;23.64;40.33;99302.09;4985591;28;20448;-78